Time;durP1;ratioP1;P1;durP2;ratioP2;P2;SDS_P1;SDS_P2;PMS_P1;PMS_P2;Temp;Humidity;BMP_temperature;BMP_pressure;BME280_temperature;BME280_humidity;BME280_pressure;Samples;Min_cycle;Max_cycle;Signal;HPM_P1;HPM_P2
2022/08/30 00:03:01;;;;;;;4.68;3.72;;;15.20;99.90;;;;;;5030408;28;20050;-75
2022/08/30 00:05:28;;;;;;;5.45;3.58;;;15.20;99.90;;;;;;5013889;28;20045;-75
2022/08/30 00:07:54;;;;;;;4.80;3.47;;;15.20;99.90;;;;;;5015881;28;20079;-75
2022/08/30 00:10:20;;;;;;;4.95;3.33;;;14.90;99.90;;;;;;5033310;28;20041;-75
2022/08/30 00:12:47;;;;;;;6.35;4.00;;;14.90;99.90;;;;;;5014478;28;20049;-75
2022/08/30 00:15:14;;;;;;;6.00;2.97;;;14.80;99.90;;;;;;5029455;28;20049;-75
2022/08/30 00:17:42;;;;;;;6.05;3.17;;;14.90;99.90;;;;;;5028164;28;20491;-75
2022/08/30 00:20:10;;;;;;;7.35;3.25;;;15.00;99.90;;;;;;4999958;28;20118;-75
2022/08/30 00:22:37;;;;;;;4.97;3.25;;;15.00;99.90;;;;;;5015434;28;20037;-75
2022/08/30 00:25:03;;;;;;;6.00;3.00;;;15.00;99.90;;;;;;5031909;28;20076;-75
2022/08/30 00:27:30;;;;;;;11.82;3.40;;;15.00;99.90;;;;;;5032258;28;20037;-75
2022/08/30 00:29:55;;;;;;;3.78;2.72;;;15.10;99.90;;;;;;5049024;28;20107;-75
2022/08/30 00:32:22;;;;;;;6.18;3.20;;;15.10;99.90;;;;;;5029172;28;21330;-76
2022/08/30 00:34:53;;;;;;;4.45;3.17;;;15.20;99.90;;;;;;5029507;28;20037;-75
2022/08/30 00:37:19;;;;;;;5.45;3.33;;;15.20;99.90;;;;;;5014911;28;20079;-75
2022/08/30 00:39:45;;;;;;;6.65;3.10;;;15.20;99.90;;;;;;5032266;28;20524;-75
2022/08/30 00:42:13;;;;;;;8.55;3.10;;;15.20;99.90;;;;;;5028464;28;20049;-75
2022/08/30 00:44:40;;;;;;;4.70;3.28;;;15.20;99.90;;;;;;5010677;28;20045;-75
2022/08/30 00:47:06;;;;;;;5.43;3.05;;;15.20;99.90;;;;;;4995696;28;20470;-75
2022/08/30 00:49:33;;;;;;;4.93;3.33;;;15.10;99.90;;;;;;5031662;28;20355;-76
2022/08/30 00:52:01;;;;;;;4.65;3.15;;;15.20;99.90;;;;;;5030522;28;20498;-76
2022/08/30 00:54:27;;;;;;;6.30;3.67;;;15.10;99.90;;;;;;5028231;28;20122;-75
2022/08/30 00:56:54;;;;;;;6.75;3.63;;;15.20;99.90;;;;;;4995521;28;20042;-75
2022/08/30 00:59:23;;;;;;;4.93;3.72;;;15.10;99.90;;;;;;5011175;28;20055;-75
2022/08/30 01:01:49;;;;;;;6.72;3.75;;;15.20;99.90;;;;;;5016320;28;20045;-75
2022/08/30 01:04:18;;;;;;;7.40;3.90;;;15.20;99.90;;;;;;5027917;28;20512;-75
2022/08/30 01:06:45;;;;;;;9.82;4.10;;;15.20;99.90;;;;;;5010566;28;20501;-75
2022/08/30 01:09:12;;;;;;;3.88;3.33;;;15.20;99.90;;;;;;4994778;28;20072;-75
2022/08/30 01:11:40;;;;;;;7.28;4.03;;;15.20;99.90;;;;;;5031992;28;20053;-75
2022/08/30 01:14:08;;;;;;;5.45;3.38;;;15.20;99.90;;;;;;5025279;28;20038;-75
2022/08/30 01:16:35;;;;;;;6.10;3.55;;;15.20;99.90;;;;;;5040692;28;20128;-75
2022/08/30 01:19:02;;;;;;;5.20;3.47;;;15.20;99.90;;;;;;5009652;28;20441;-75
2022/08/30 01:21:38;;;;;;;8.02;4.00;;;15.30;99.90;;;;;;5026197;28;20088;-75
2022/08/30 01:24:05;;;;;;;8.27;4.00;;;15.20;99.90;;;;;;5027321;28;20187;-75
2022/08/30 01:26:33;;;;;;;5.20;3.40;;;15.20;99.90;;;;;;5008829;28;20133;-75
2022/08/30 01:29:05;;;;;;;5.90;3.80;;;15.20;99.90;;;;;;5028994;28;20048;-75
2022/08/30 01:31:34;;;;;;;5.10;3.40;;;15.20;99.90;;;;;;5025676;28;20088;-75
2022/08/30 01:34:00;;;;;;;7.55;3.67;;;15.20;99.90;;;;;;5025141;28;20061;-74
2022/08/30 01:36:26;;;;;;;4.82;3.28;;;15.10;99.90;;;;;;5009450;28;20494;-74
2022/08/30 01:38:56;;;;;;;7.65;4.05;;;15.20;99.90;;;;;;5023083;28;20049;-75
2022/08/30 01:41:34;;;;;;;5.15;2.90;;;15.10;99.90;;;;;;4993021;28;20120;-74
2022/08/30 01:44:06;;;;;;;6.95;3.92;;;15.30;99.90;;;;;;5009806;28;20462;-75
2022/08/30 01:46:36;;;;;;;4.63;3.47;;;15.00;99.90;;;;;;5012119;28;20041;-75
2022/08/30 01:49:06;;;;;;;8.90;3.70;;;15.00;99.90;;;;;;5026283;28;20390;-75
2022/08/30 01:51:32;;;;;;;5.33;3.70;;;15.00;99.90;;;;;;5010529;28;20064;-75
2022/08/30 01:53:58;;;;;;;4.38;3.15;;;15.00;99.90;;;;;;5023155;28;20345;-75
2022/08/30 01:56:26;;;;;;;7.60;3.95;;;15.00;99.90;;;;;;5011389;28;20054;-75
2022/08/30 01:58:53;;;;;;;4.30;3.40;;;15.00;99.90;;;;;;5042237;28;20430;-75
2022/08/30 02:01:24;;;;;;;4.95;3.17;;;14.90;99.90;;;;;;5031739;28;20077;-74
2022/08/30 02:03:53;;;;;;;5.60;3.70;;;15.00;99.90;;;;;;5031012;28;20061;-75
2022/08/30 02:06:19;;;;;;;5.35;3.63;;;14.90;99.90;;;;;;5045395;28;20132;-75
2022/08/30 02:08:46;;;;;;;4.32;3.35;;;14.90;99.90;;;;;;5025506;28;20045;-75
2022/08/30 02:11:13;;;;;;;6.18;3.60;;;14.80;99.90;;;;;;5029668;28;20116;-75
2022/08/30 02:13:41;;;;;;;4.35;3.35;;;14.80;99.90;;;;;;5015183;28;20072;-75
2022/08/30 02:16:10;;;;;;;4.45;3.30;;;14.80;99.90;;;;;;5028805;28;20041;-75
2022/08/30 02:18:38;;;;;;;5.80;3.40;;;14.80;99.90;;;;;;5014430;28;20076;-75
2022/08/30 02:21:04;;;;;;;4.53;3.60;;;14.80;99.90;;;;;;5031264;28;20045;-75
2022/08/30 02:23:30;;;;;;;7.47;4.13;;;14.80;99.90;;;;;;5030496;28;20530;-75
2022/08/30 02:25:56;;;;;;;4.20;3.30;;;14.90;99.90;;;;;;5012110;28;20099;-75
2022/08/30 02:28:24;;;;;;;8.40;3.85;;;14.90;99.90;;;;;;5030435;28;20393;-75
2022/08/30 02:30:51;;;;;;;6.20;3.72;;;15.00;99.90;;;;;;5014717;28;20045;-75
2022/08/30 02:33:17;;;;;;;6.72;3.65;;;15.00;99.90;;;;;;5011249;28;20073;-74
2022/08/30 02:35:43;;;;;;;5.93;3.88;;;15.00;99.90;;;;;;5016190;28;20405;-75
2022/08/30 02:38:09;;;;;;;5.70;4.00;;;15.00;99.90;;;;;;5030003;28;20037;-75
2022/08/30 02:40:35;;;;;;;5.70;3.80;;;15.00;99.90;;;;;;5009837;28;20137;-75
2022/08/30 02:43:01;;;;;;;6.38;3.63;;;15.10;99.90;;;;;;5014839;28;20153;-74
2022/08/30 02:45:27;;;;;;;5.18;3.72;;;15.10;99.90;;;;;;5030019;28;20534;-74
2022/08/30 02:47:55;;;;;;;6.00;3.65;;;15.10;99.90;;;;;;5030808;28;20077;-74
2022/08/30 02:50:21;;;;;;;4.78;3.65;;;15.10;99.90;;;;;;5023862;28;20034;-74
2022/08/30 02:52:47;;;;;;;7.55;3.67;;;15.10;99.90;;;;;;5031985;28;20080;-74
2022/08/30 02:55:13;;;;;;;6.35;4.00;;;15.10;99.90;;;;;;5017810;28;20432;-74
2022/08/30 02:57:39;;;;;;;6.45;4.10;;;15.10;99.90;;;;;;5033528;28;20924;-74
2022/08/30 03:00:11;;;;;;;5.53;3.95;;;15.10;99.90;;;;;;5030622;28;20500;-74
2022/08/30 03:02:37;;;;;;;6.35;4.07;;;15.10;99.90;;;;;;5014727;28;20056;-74
2022/08/30 03:05:04;;;;;;;8.93;4.40;;;15.10;99.90;;;;;;4993002;28;20440;-74
2022/08/30 03:07:30;;;;;;;5.55;3.80;;;15.10;99.90;;;;;;5032705;28;20474;-74
2022/08/30 03:09:57;;;;;;;6.75;3.80;;;15.10;99.90;;;;;;5032040;28;20037;-74
2022/08/30 03:12:24;;;;;;;6.65;4.22;;;15.10;99.90;;;;;;5012205;28;20084;-74
2022/08/30 03:14:50;;;;;;;6.80;4.05;;;15.10;99.90;;;;;;5018089;28;20083;-75
2022/08/30 03:17:16;;;;;;;6.47;3.80;;;15.10;99.90;;;;;;5016288;28;20072;-74
2022/08/30 03:19:43;;;;;;;7.38;3.63;;;15.10;99.90;;;;;;5030528;28;20076;-74
2022/08/30 03:22:09;;;;;;;7.35;3.42;;;15.10;99.90;;;;;;5015570;28;20049;-74
2022/08/30 03:24:36;;;;;;;5.10;3.83;;;15.10;99.90;;;;;;5017593;28;20397;-75
2022/08/30 03:27:02;;;;;;;5.80;3.72;;;15.10;99.90;;;;;;5034052;28;20045;-74
2022/08/30 03:29:28;;;;;;;5.45;3.67;;;15.00;99.90;;;;;;5017608;28;20041;-75
2022/08/30 03:31:58;;;;;;;6.47;4.13;;;15.00;99.90;;;;;;5014954;28;20470;-74
2022/08/30 03:34:25;;;;;;;5.15;3.50;;;15.00;99.90;;;;;;5048303;28;20501;-74
2022/08/30 03:36:53;;;;;;;6.90;3.88;;;15.00;99.90;;;;;;5033299;28;20541;-75
2022/08/30 03:39:20;;;;;;;5.10;3.38;;;15.00;99.90;;;;;;5049575;28;20048;-75
2022/08/30 03:41:46;;;;;;;7.72;3.83;;;14.90;99.90;;;;;;5016541;28;20067;-74
2022/08/30 03:44:12;;;;;;;8.73;4.45;;;14.90;99.90;;;;;;5028036;28;20398;-75
2022/08/30 03:46:38;;;;;;;6.50;3.63;;;14.80;99.90;;;;;;5015568;28;20401;-74
2022/08/30 03:49:05;;;;;;;6.40;3.90;;;14.80;99.90;;;;;;5033751;28;20049;-74
2022/08/30 03:51:32;;;;;;;6.85;4.13;;;14.70;99.90;;;;;;5033824;28;20045;-74
2022/08/30 03:53:58;;;;;;;5.72;4.15;;;14.70;99.90;;;;;;5029981;28;20041;-74
2022/08/30 03:56:24;;;;;;;6.28;4.05;;;14.60;99.90;;;;;;5027161;28;20037;-74
2022/08/30 03:58:50;;;;;;;8.02;4.38;;;14.60;99.90;;;;;;5028410;28;20041;-74
2022/08/30 04:01:16;;;;;;;7.85;4.68;;;14.50;99.90;;;;;;5016932;28;20120;-74
2022/08/30 04:03:42;;;;;;;5.60;4.40;;;14.50;99.90;;;;;;5031096;28;20053;-74
2022/08/30 04:06:08;;;;;;;7.00;4.88;;;14.40;99.90;;;;;;4999095;28;20064;-74
2022/08/30 04:08:34;;;;;;;9.65;5.05;;;14.40;99.90;;;;;;5015782;28;20457;-75
2022/08/30 04:11:01;;;;;;;7.65;4.75;;;14.30;99.90;;;;;;5033307;28;20100;-74
2022/08/30 04:13:28;;;;;;;7.72;4.63;;;14.30;99.90;;;;;;5033190;28;20113;-75
2022/08/30 04:15:54;;;;;;;8.20;5.05;;;14.20;99.90;;;;;;5011237;28;20814;-74
2022/08/30 04:18:20;;;;;;;7.72;4.90;;;14.20;99.90;;;;;;5029665;28;20037;-74
2022/08/30 04:20:46;;;;;;;5.72;4.80;;;14.10;99.90;;;;;;5033284;28;20449;-74
2022/08/30 04:23:13;;;;;;;7.40;4.57;;;14.10;99.90;;;;;;5032320;28;20160;-74
2022/08/30 04:25:40;;;;;;;5.10;4.40;;;14.00;99.90;;;;;;5030211;28;20084;-74
2022/08/30 04:28:07;;;;;;;7.63;5.38;;;13.90;99.90;;;;;;5032141;28;20037;-75
2022/08/30 04:30:36;;;;;;;8.52;4.85;;;13.90;99.90;;;;;;5032045;28;20100;-75
2022/08/30 04:33:02;;;;;;;6.93;4.57;;;13.90;99.90;;;;;;5031692;28;20049;-74
2022/08/30 04:35:28;;;;;;;6.93;4.95;;;13.80;99.90;;;;;;5029599;28;20470;-74
2022/08/30 04:37:54;;;;;;;8.43;4.65;;;13.80;99.90;;;;;;5028503;28;20041;-74
2022/08/30 04:40:20;;;;;;;8.25;5.07;;;13.80;99.90;;;;;;5031989;28;20059;-74
2022/08/30 04:42:46;;;;;;;8.13;4.80;;;13.70;99.90;;;;;;5032367;28;20084;-74
2022/08/30 04:45:15;;;;;;;7.10;4.65;;;13.70;99.90;;;;;;5016190;28;20049;-74
2022/08/30 04:47:42;;;;;;;6.68;4.50;;;13.60;99.90;;;;;;5011216;28;20041;-74
2022/08/30 04:50:10;;;;;;;7.65;4.72;;;13.60;99.90;;;;;;5032692;28;20103;-74
2022/08/30 04:52:37;;;;;;;7.47;4.78;;;13.60;99.90;;;;;;5015529;28;20044;-73
2022/08/30 04:55:04;;;;;;;7.88;4.45;;;13.60;99.90;;;;;;5016305;28;20053;-74
2022/08/30 04:57:30;;;;;;;4.95;4.10;;;13.50;99.90;;;;;;5029458;28;20046;-74
2022/08/30 04:59:56;;;;;;;7.32;4.63;;;13.50;99.90;;;;;;5032739;28;20068;-74
2022/08/30 05:02:22;;;;;;;6.55;4.72;;;13.50;99.90;;;;;;5015809;28;20041;-74
2022/08/30 05:07:33;;;;;;;7.28;4.38;;;13.50;99.90;;;;;;5013996;28;20456;-74
2022/08/30 05:10:00;;;;;;;5.93;4.20;;;13.50;99.90;;;;;;5025282;28;20044;-74
2022/08/30 05:12:26;;;;;;;4.65;3.58;;;13.40;99.90;;;;;;5032393;28;20049;-74
2022/08/30 05:14:53;;;;;;;6.15;4.28;;;13.40;99.90;;;;;;5032186;28;20049;-74
2022/08/30 05:17:18;;;;;;;5.80;4.20;;;13.40;99.90;;;;;;5028852;28;20644;-74
2022/08/30 05:19:44;;;;;;;5.53;4.28;;;13.40;99.90;;;;;;4998063;28;20072;-74
2022/08/30 05:22:11;;;;;;;6.72;3.75;;;13.20;99.90;;;;;;5031328;28;20048;-74
2022/08/30 05:24:37;;;;;;;5.40;3.67;;;13.30;99.90;;;;;;5015841;28;20478;-74
2022/08/30 05:27:03;;;;;;;4.95;3.55;;;13.30;99.90;;;;;;5032196;28;20045;-74
2022/08/30 05:29:30;;;;;;;7.18;3.90;;;13.30;99.90;;;;;;5025862;28;20424;-74
2022/08/30 05:31:56;;;;;;;6.18;4.00;;;13.30;99.90;;;;;;5032015;28;20049;-74
2022/08/30 05:34:22;;;;;;;8.15;4.40;;;13.30;99.90;;;;;;5015630;28;20388;-73
2022/08/30 05:36:48;;;;;;;6.10;4.82;;;13.30;99.90;;;;;;5031334;28;20045;-74
2022/08/30 05:39:14;;;;;;;4.75;4.25;;;13.30;99.90;;;;;;5013303;28;20424;-74
2022/08/30 05:41:40;;;;;;;5.25;4.00;;;13.20;99.90;;;;;;5031500;28;20144;-73
2022/08/30 05:44:08;;;;;;;5.32;4.10;;;13.20;99.90;;;;;;5015695;28;20053;-74
2022/08/30 05:46:35;;;;;;;6.10;4.15;;;13.30;99.90;;;;;;5032027;28;20413;-74
2022/08/30 05:49:03;;;;;;;7.75;4.22;;;13.40;99.90;;;;;;5031047;28;20041;-74
2022/08/30 05:51:33;;;;;;;6.40;4.93;;;13.50;99.90;;;;;;5014592;28;20042;-74
2022/08/30 05:53:59;;;;;;;7.22;5.65;;;13.60;99.90;;;;;;5031215;28;20390;-73
2022/08/30 05:56:31;;;;;;;8.40;6.57;;;13.80;99.90;;;;;;5015309;28;20060;-73
2022/08/30 05:58:57;;;;;;;11.38;7.28;;;14.00;99.90;;;;;;5030792;28;20045;-74
2022/08/30 06:01:39;;;;;;;9.38;6.50;;;14.20;99.90;;;;;;5012548;28;20386;-74
2022/08/30 06:04:06;;;;;;;;;;;14.40;99.90;;;;;;5048460;28;20061;-74
2022/08/30 06:06:34;;;;;;;7.88;6.53;;;14.60;99.90;;;;;;5014951;28;19924;-74
2022/08/30 06:09:01;;;;;;;8.57;6.13;;;14.70;99.90;;;;;;5046764;28;20432;-73
2022/08/30 06:11:27;;;;;;;10.63;5.63;;;14.90;99.90;;;;;;4993973;28;20041;-74
2022/08/30 06:13:54;;;;;;;8.52;4.97;;;15.00;99.90;;;;;;5014561;28;20596;-74
2022/08/30 06:16:23;;;;;;;9.52;4.75;;;15.20;99.90;;;;;;4998824;28;20045;-73
2022/08/30 06:18:49;;;;;;;6.60;3.80;;;15.40;99.90;;;;;;5031368;28;20496;-74
2022/08/30 06:21:22;;;;;;;6.68;4.03;;;15.50;99.90;;;;;;5011156;28;20216;-74
2022/08/30 06:23:48;;;;;;;6.05;3.40;;;15.60;99.90;;;;;;5030294;28;20045;-74
2022/08/30 06:26:14;;;;;;;5.65;3.20;;;15.80;99.90;;;;;;5011918;28;20057;-74
2022/08/30 06:28:40;;;;;;;7.43;3.17;;;16.00;99.90;;;;;;5013868;28;20056;-74
2022/08/30 06:31:08;;;;;;;6.57;2.92;;;16.10;99.90;;;;;;5005775;28;20042;-74
2022/08/30 06:33:35;;;;;;;7.22;3.10;;;16.30;99.90;;;;;;5018655;28;20037;-74
2022/08/30 06:36:09;;;;;;;3.63;2.20;;;16.40;99.90;;;;;;5034965;28;20124;-74
2022/08/30 06:38:35;;;;;;;4.97;2.17;;;16.50;99.90;;;;;;5034166;28;20230;-74
2022/08/30 06:41:09;;;;;;;5.97;2.50;;;16.60;99.90;;;;;;5035136;28;20120;-74
2022/08/30 06:43:36;;;;;;;5.85;2.30;;;16.80;99.90;;;;;;5035245;28;20041;-74
2022/08/30 06:46:08;;;;;;;2.92;2.08;;;16.90;99.90;;;;;;5034069;28;20048;-74
2022/08/30 06:48:34;;;;;;;3.72;2.58;;;17.00;99.90;;;;;;5034642;28;20049;-74
2022/08/30 06:51:00;;;;;;;5.72;2.47;;;17.10;99.90;;;;;;5014462;28;20128;-74
2022/08/30 06:53:28;;;;;;;3.30;2.15;;;17.20;99.90;;;;;;5023893;28;20136;-73
2022/08/30 06:56:00;;;;;;;5.28;1.83;;;17.30;99.90;;;;;;5035079;28;20041;-74
2022/08/30 06:58:28;;;;;;;4.53;2.20;;;17.40;99.90;;;;;;5034581;28;20049;-74
2022/08/30 07:00:55;;;;;;;3.67;1.83;;;17.50;99.90;;;;;;5017730;28;20049;-74
2022/08/30 07:03:26;;;;;;;3.58;1.80;;;17.60;99.90;;;;;;5034998;28;20048;-74
2022/08/30 07:05:53;;;;;;;2.55;2.00;;;17.60;99.90;;;;;;5017518;28;20088;-74
2022/08/30 07:08:19;;;;;;;3.90;1.77;;;17.80;99.90;;;;;;5017017;28;20053;-74
2022/08/30 07:10:45;;;;;;;5.35;1.77;;;17.90;99.90;;;;;;5034686;28;20205;-74
2022/08/30 07:13:11;;;;;;;3.55;1.38;;;18.00;99.90;;;;;;5016396;28;20034;-74
2022/08/30 07:15:43;;;;;;;2.90;1.30;;;18.10;99.90;;;;;;5032832;28;20486;-74
2022/08/30 07:20:55;;;;;;;5.07;1.42;;;18.10;99.90;;;;;;5033271;28;20049;-74
2022/08/30 07:23:20;;;;;;;2.58;1.27;;;18.30;99.90;;;;;;5017848;28;20072;-74
2022/08/30 07:25:47;;;;;;;6.00;1.30;;;18.40;99.90;;;;;;5034337;28;20088;-74
2022/08/30 07:28:13;;;;;;;1.90;1.30;;;18.40;99.90;;;;;;5017548;28;20049;-74
2022/08/30 07:30:40;;;;;;;4.68;1.38;;;18.50;99.90;;;;;;5033557;28;20476;-74
2022/08/30 07:33:07;;;;;;;2.17;1.40;;;18.60;99.90;;;;;;5022277;28;20045;-73
2022/08/30 07:35:33;;;;;;;1.83;1.00;;;18.50;99.90;;;;;;5017708;28;20148;-74
2022/08/30 07:37:59;;;;;;;2.63;1.40;;;18.60;99.90;;;;;;5030783;28;20529;-73
2022/08/30 07:40:25;;;;;;;4.15;1.20;;;18.70;99.90;;;;;;5023494;28;20173;-74
2022/08/30 07:42:51;;;;;;;2.03;1.10;;;18.80;99.90;;;;;;5012596;28;20048;-74
2022/08/30 07:45:17;;;;;;;3.75;1.08;;;18.80;99.90;;;;;;5016644;28;20037;-73
2022/08/30 07:47:44;;;;;;;2.53;1.13;;;19.00;99.90;;;;;;5016517;28;20161;-74
2022/08/30 07:50:10;;;;;;;2.00;1.20;;;19.00;99.90;;;;;;5025577;28;20042;-74
2022/08/30 07:52:36;;;;;;;1.77;1.10;;;19.10;99.90;;;;;;5027404;28;20045;-74
2022/08/30 07:55:03;;;;;;;1.95;1.00;;;19.20;99.90;;;;;;5029684;28;20053;-74
2022/08/30 07:57:33;;;;;;;2.45;1.38;;;19.20;99.90;;;;;;5032404;28;20045;-74
2022/08/30 07:59:59;;;;;;;3.53;1.13;;;19.30;99.90;;;;;;5031236;28;20052;-74
2022/08/30 08:02:25;;;;;;;3.25;1.20;;;19.30;99.90;;;;;;5031946;28;20478;-74
2022/08/30 08:04:51;;;;;;;1.13;0.95;;;19.40;99.90;;;;;;5046035;28;20100;-74
2022/08/30 08:07:18;;;;;;;2.15;1.10;;;19.50;99.90;;;;;;5003208;28;20041;-74
2022/08/30 08:09:44;;;;;;;4.43;1.00;;;19.60;99.90;;;;;;5032862;28;20504;-74
2022/08/30 08:12:11;;;;;;;1.60;0.98;;;19.70;99.90;;;;;;5027113;28;20037;-74
2022/08/30 08:14:39;;;;;;;2.38;1.10;;;19.70;99.90;;;;;;5032353;28;20056;-73
2022/08/30 08:17:05;;;;;;;1.75;1.00;;;19.60;99.90;;;;;;5015392;28;20085;-74
2022/08/30 08:19:31;;;;;;;2.58;1.10;;;19.70;99.90;;;;;;5000048;28;20084;-74
2022/08/30 08:21:59;;;;;;;1.75;1.10;;;19.70;99.90;;;;;;5027535;28;20041;-74
2022/08/30 08:24:26;;;;;;;2.33;1.33;;;19.90;99.90;;;;;;5028093;28;20052;-73
2022/08/30 08:26:53;;;;;;;3.75;1.20;;;20.00;99.90;;;;;;5032115;28;20112;-74
2022/08/30 08:29:19;;;;;;;1.80;0.90;;;20.20;99.90;;;;;;5032890;28;20041;-73
2022/08/30 08:31:45;;;;;;;1.38;0.93;;;20.30;99.90;;;;;;5013986;28;20470;-74
2022/08/30 08:34:12;;;;;;;1.40;1.00;;;20.40;99.90;;;;;;5028056;28;20056;-72
2022/08/30 08:36:39;;;;;;;3.97;1.00;;;20.40;99.90;;;;;;5010833;28;20774;-74
2022/08/30 08:39:07;;;;;;;2.25;0.98;;;20.50;99.90;;;;;;5028418;28;20041;-73
2022/08/30 08:41:58;;;;;;;2.85;1.10;;;20.60;99.90;;;;;;5032831;28;20041;-73
2022/08/30 08:44:42;;;;;;;1.77;0.90;;;20.50;99.90;;;;;;5016577;28;20049;-74
2022/08/30 08:47:23;;;;;;;2.88;1.05;;;20.60;99.90;;;;;;5032781;28;20128;-74
2022/08/30 08:49:53;;;;;;;1.23;1.08;;;20.50;99.90;;;;;;5027758;28;20470;-74
2022/08/30 08:55:12;;;;;;;1.75;1.20;;;20.80;99.90;;;;;;5042893;28;20049;-74
2022/08/30 08:57:39;;;;;;;1.95;0.95;;;21.00;99.90;;;;;;5013831;28;20482;-74
2022/08/30 09:00:07;;;;;;;2.70;1.00;;;20.90;99.90;;;;;;5032593;28;20105;-73
2022/08/30 09:02:42;;;;;;;3.00;1.10;;;20.80;99.90;;;;;;5032305;28;20063;-74
2022/08/30 09:05:11;;;;;;;4.43;1.02;;;20.70;99.90;;;;;;5030733;28;20054;-73
2022/08/30 09:07:44;;;;;;;2.75;0.98;;;20.80;99.90;;;;;;5026281;28;20053;-73
2022/08/30 09:10:09;;;;;;;2.65;0.95;;;21.10;99.90;;;;;;5032366;28;20052;-73
2022/08/30 09:12:35;;;;;;;2.20;0.95;;;21.20;99.90;;;;;;5032469;28;20048;-74
2022/08/30 09:15:19;;;;;;;2.22;0.82;;;21.20;99.90;;;;;;5032300;28;20098;-73
2022/08/30 09:18:06;;;;;;;3.85;0.88;;;21.30;99.90;;;;;;5029048;28;20381;-73
2022/08/30 09:20:42;;;;;;;2.10;0.90;;;21.40;99.90;;;;;;5025796;28;20037;-74
2022/08/30 09:23:28;;;;;;;1.33;0.85;;;21.10;99.90;;;;;;5027967;28;20625;-74
2022/08/30 09:26:07;;;;;;;4.10;1.02;;;21.00;99.90;;;;;;5015921;28;20052;-74
2022/08/30 09:28:45;;;;;;;1.02;0.80;;;21.20;99.90;;;;;;5013478;28;20051;-74
2022/08/30 09:31:23;;;;;;;2.00;0.90;;;21.30;99.90;;;;;;5030294;28;20041;-74
2022/08/30 09:34:02;;;;;;;3.00;1.00;;;21.50;99.90;;;;;;5013105;28;20182;-74
2022/08/30 09:36:34;;;;;;;1.52;1.10;;;21.70;99.90;;;;;;5029765;28;20504;-74
2022/08/30 09:39:05;;;;;;;1.35;0.80;;;21.90;99.90;;;;;;5030641;28;20050;-74
2022/08/30 09:41:41;;;;;;;2.15;1.00;;;21.80;99.90;;;;;;5027664;28;20042;-74
2022/08/30 09:44:14;;;;;;;1.58;1.13;;;21.80;99.90;;;;;;5031381;28;20049;-74
2022/08/30 09:46:45;;;;;;;1.63;0.95;;;21.50;99.90;;;;;;5032020;28;20106;-74
2022/08/30 09:49:29;;;;;;;4.05;1.10;;;21.30;99.90;;;;;;5030115;28;20041;-74
2022/08/30 09:52:07;;;;;;;1.63;0.95;;;21.40;99.40;;;;;;5026926;28;20099;-74
2022/08/30 09:54:54;;;;;;;3.13;1.20;;;21.30;99.90;;;;;;5031641;28;20132;-74
2022/08/30 09:57:35;;;;;;;2.92;1.20;;;21.20;99.90;;;;;;5031708;28;20095;-74
2022/08/30 10:00:17;;;;;;;2.13;1.08;;;21.60;99.90;;;;;;5027673;28;20033;-74
2022/08/30 10:03:05;;;;;;;5.47;1.27;;;21.80;99.90;;;;;;5043575;28;20362;-74
2022/08/30 10:06:10;;;;;;;1.77;0.98;;;22.00;98.50;;;;;;5030413;28;20478;-74
2022/08/30 10:08:45;;;;;;;1.70;1.08;;;22.20;97.50;;;;;;5006584;28;20113;-74
2022/08/30 10:11:37;;;;;;;1.02;0.82;;;22.30;96.20;;;;;;5026922;28;20037;-74
2022/08/30 10:14:20;;;;;;;6.20;1.25;;;22.10;96.10;;;;;;5030275;28;20398;-73
2022/08/30 10:17:01;;;;;;;2.08;1.10;;;22.00;96.20;;;;;;5031678;28;20359;-73
2022/08/30 10:19:39;;;;;;;2.30;1.15;;;22.00;97.00;;;;;;5030590;28;20042;-74
2022/08/30 10:22:20;;;;;;;3.08;1.30;;;22.40;95.80;;;;;;5024487;28;20056;-73
2022/08/30 10:24:56;;;;;;;1.73;1.13;;;22.60;96.20;;;;;;5027588;28;20045;-73
2022/08/30 10:27:33;;;;;;;3.88;1.15;;;22.70;96.90;;;;;;5014430;28;20076;-74
2022/08/30 10:30:12;;;;;;;3.75;1.20;;;23.00;96.20;;;;;;5011065;28;20034;-73
2022/08/30 10:32:57;;;;;;;1.30;1.00;;;23.40;96.60;;;;;;5011228;28;20057;-73
2022/08/30 10:35:26;;;;;;;1.05;0.90;;;23.60;95.00;;;;;;5010398;28;20041;-73
2022/08/30 10:38:05;;;;;;;1.85;1.10;;;23.60;94.90;;;;;;5031224;28;20049;-73
2022/08/30 10:43:44;;;;;;;1.60;0.93;;;23.70;93.10;;;;;;5028092;28;20108;-73
2022/08/30 10:46:30;;;;;;;3.58;1.30;;;23.60;93.40;;;;;;5024883;28;20045;-74
2022/08/30 10:48:59;;;;;;;1.35;1.00;;;23.40;92.90;;;;;;5028673;28;20045;-74
2022/08/30 10:51:45;;;;;;;1.58;1.05;;;23.30;93.40;;;;;;5030747;28;20038;-73
2022/08/30 10:54:31;;;;;;;2.83;1.20;;;23.50;91.60;;;;;;5030568;28;20037;-73
2022/08/30 10:56:58;;;;;;;2.28;1.10;;;23.50;92.30;;;;;;5025925;28;20132;-73
2022/08/30 10:59:24;;;;;;;1.65;1.15;;;23.60;93.20;;;;;;5005500;28;20041;-73
2022/08/30 11:02:02;;;;;;;2.85;1.10;;;23.70;93.10;;;;;;5025272;28;20443;-74
2022/08/30 11:04:57;;;;;;;1.75;0.98;;;23.70;92.50;;;;;;5024935;28;20061;-73
2022/08/30 11:07:57;;;;;;;2.13;0.82;;;23.90;90.90;;;;;;5023637;28;20037;-74
2022/08/30 11:10:53;;;;;;;1.58;1.10;;;24.00;88.30;;;;;;5029879;28;20096;-73
2022/08/30 11:13:27;;;;;;;1.67;1.20;;;24.30;91.30;;;;;;5031113;28;20052;-73
2022/08/30 11:16:14;;;;;;;1.85;1.08;;;24.50;90.00;;;;;;5012848;28;20559;-75
2022/08/30 11:18:56;;;;;;;3.10;1.00;;;24.80;86.40;;;;;;5014682;28;20050;-73
2022/08/30 11:21:38;;;;;;;1.65;1.00;;;24.60;83.70;;;;;;5014845;28;20050;-73
2022/08/30 11:24:14;;;;;;;1.88;1.00;;;24.60;85.80;;;;;;5014872;28;20498;-73
2022/08/30 11:26:47;;;;;;;3.17;1.40;;;24.70;80.30;;;;;;5022348;28;20482;-74
2022/08/30 11:29:28;;;;;;;1.38;1.05;;;24.80;80.50;;;;;;5034344;28;20171;-73
2022/08/30 11:31:56;;;;;;;3.33;1.10;;;24.50;81.80;;;;;;5034126;28;20052;-73
2022/08/30 11:34:44;;;;;;;2.17;0.93;;;24.70;84.50;;;;;;5034239;28;20084;-74
2022/08/30 11:37:37;;;;;;;1.85;1.20;;;24.80;79.30;;;;;;5034055;28;20455;-74
2022/08/30 11:40:18;;;;;;;1.05;0.90;;;25.10;83.00;;;;;;5034292;28;20041;-74
2022/08/30 11:42:51;;;;;;;1.40;1.08;;;25.40;76.40;;;;;;5033322;28;20041;-73
2022/08/30 11:45:23;;;;;;;2.45;1.10;;;25.40;78.20;;;;;;5033654;28;20037;-74
2022/08/30 11:47:52;;;;;;;1.05;0.95;;;25.40;79.20;;;;;;5033881;28;20041;-74
2022/08/30 11:50:27;;;;;;;1.38;1.08;;;25.40;80.50;;;;;;5017429;28;20121;-73
2022/08/30 11:53:13;;;;;;;2.38;0.85;;;25.10;78.10;;;;;;5017289;28;20049;-73
2022/08/30 11:55:52;;;;;;;2.15;0.90;;;25.10;79.60;;;;;;5033078;28;20504;-74
2022/08/30 11:58:32;;;;;;;1.55;0.90;;;24.80;76.30;;;;;;5013852;28;20530;-73
2022/08/30 12:01:31;;;;;;;2.75;1.17;;;24.50;79.10;;;;;;5043883;28;20045;-73
2022/08/30 12:04:16;;;;;;;1.40;0.90;;;24.60;81.00;;;;;;5030844;28;20036;-73
2022/08/30 12:06:59;;;;;;;1.25;0.98;;;24.90;79.20;;;;;;5023093;28;20077;-73
2022/08/30 12:09:25;;;;;;;1.83;1.10;;;24.80;81.10;;;;;;5024312;28;20154;-74
2022/08/30 12:12:16;;;;;;;2.55;0.82;;;24.80;83.00;;;;;;5028833;28;20037;-73
2022/08/30 12:14:48;;;;;;;1.58;1.00;;;25.20;82.00;;;;;;5011615;28;20049;-74
2022/08/30 12:20:47;;;;;;;0.80;0.80;;;25.90;74.60;;;;;;5033425;28;20076;-74
2022/08/30 12:23:22;;;;;;;2.13;1.08;;;25.70;77.00;;;;;;5033327;28;20050;-74
2022/08/30 12:25:48;;;;;;;1.23;0.88;;;25.80;77.50;;;;;;5049393;28;20045;-74
2022/08/30 12:28:24;;;;;;;1.70;1.02;;;25.90;77.70;;;;;;5013243;28;20041;-74
2022/08/30 12:30:52;;;;;;;2.35;1.00;;;26.40;75.90;;;;;;5044291;28;20493;-74
2022/08/30 12:33:31;;;;;;;1.42;1.00;;;26.30;77.60;;;;;;5031900;28;20053;-74
2022/08/30 12:35:58;;;;;;;3.00;1.10;;;25.90;72.70;;;;;;5013939;28;20045;-73
2022/08/30 12:38:25;;;;;;;2.03;0.90;;;26.00;74.40;;;;;;5016470;28;20049;-74
2022/08/30 12:40:55;;;;;;;0.80;0.80;;;25.60;74.40;;;;;;5044656;28;20501;-75
2022/08/30 12:43:37;;;;;;;1.38;1.08;;;25.40;74.20;;;;;;5031238;28;20041;-74
2022/08/30 12:46:07;;;;;;;3.05;1.15;;;25.10;74.20;;;;;;5041444;28;20041;-74
2022/08/30 12:48:37;;;;;;;1.95;1.00;;;25.00;75.70;;;;;;5015574;28;20050;-74
2022/08/30 12:51:04;;;;;;;2.28;0.90;;;25.60;79.80;;;;;;5017007;28;20037;-75
2022/08/30 12:53:35;;;;;;;1.00;0.90;;;26.30;78.80;;;;;;5026684;28;20053;-75
2022/08/30 12:56:08;;;;;;;2.78;1.00;;;26.50;76.90;;;;;;5009822;28;20042;-74
2022/08/30 12:58:49;;;;;;;1.73;1.10;;;26.50;74.70;;;;;;5010369;28;20045;-75
2022/08/30 13:01:27;;;;;;;1.75;0.90;;;26.20;72.10;;;;;;5026728;28;20064;-74
2022/08/30 13:03:59;;;;;;;1.10;1.00;;;25.90;72.10;;;;;;5026352;28;20037;-74
2022/08/30 13:06:51;;;;;;;5.00;1.10;;;25.70;72.90;;;;;;5025557;28;20044;-74
2022/08/30 13:09:35;;;;;;;2.30;0.93;;;25.50;73.50;;;;;;5008627;28;20433;-75
2022/08/30 13:12:08;;;;;;;0.90;0.80;;;26.20;75.00;;;;;;5023474;28;20038;-74
2022/08/30 13:14:40;;;;;;;1.63;1.00;;;27.20;76.10;;;;;;5007909;28;20041;-74
2022/08/30 13:17:18;;;;;;;0.85;0.85;;;28.10;71.10;;;;;;5026159;28;20045;-72
2022/08/30 13:19:57;;;;;;;1.60;0.82;;;28.10;66.00;;;;;;5047788;28;20112;-73
2022/08/30 13:22:29;;;;;;;0.80;0.80;;;28.60;69.70;;;;;;5030352;28;20045;-72